createdAt,value
2023-03-28T00:02:14.527Z,91.70
2023-03-28T00:04:43.738Z,91.80
2023-03-28T00:07:13.126Z,91.90
2023-03-28T00:09:42.495Z,91.70
2023-03-28T00:12:11.984Z,91.90
2023-03-28T00:14:41.955Z,91.80
2023-03-28T00:17:11.199Z,92.00
2023-03-28T00:19:41.890Z,91.80
2023-03-28T00:22:12.364Z,91.70
2023-03-28T00:24:41.840Z,91.90
2023-03-28T00:27:11.586Z,91.50
2023-03-28T00:29:40.812Z,91.70
2023-03-28T00:32:10.840Z,91.90
2023-03-28T00:34:40.148Z,92.20
2023-03-28T00:37:11.696Z,91.90
2023-03-28T00:39:41.066Z,91.80
2023-03-28T00:44:56.894Z,91.80
2023-03-28T00:47:41.881Z,91.80
2023-03-28T00:50:33.987Z,91.90
2023-03-28T00:53:27.353Z,91.80
2023-03-28T00:56:09.207Z,91.70
2023-03-28T00:58:45.790Z,91.70
2023-03-28T01:01:22.879Z,91.80
2023-03-28T01:04:06.553Z,91.80
2023-03-28T01:06:47.633Z,91.70
2023-03-28T01:09:20.147Z,91.70
2023-03-28T01:11:53.729Z,91.70
2023-03-28T01:14:28.226Z,91.50
2023-03-28T01:16:58.691Z,91.60
2023-03-28T01:20:03.439Z,91.60
2023-03-28T01:23:23.676Z,91.50
2023-03-28T01:26:41.544Z,91.30
2023-03-28T01:29:43.714Z,91.00
2023-03-28T01:32:39.798Z,90.60
2023-03-28T01:35:28.358Z,90.90
2023-03-28T01:38:21.410Z,91.00
2023-03-28T01:41:38.077Z,91.20
2023-03-28T01:44:22.984Z,91.00
2023-03-28T01:47:22.053Z,90.90
2023-03-28T01:50:30.726Z,91.00
2023-03-28T01:53:27.857Z,90.70
2023-03-28T01:56:14.383Z,90.80
2023-03-28T01:59:08.986Z,90.80
2023-03-28T02:02:06.445Z,90.70
2023-03-28T02:04:41.524Z,90.30
2023-03-28T02:07:14.161Z,90.30
2023-03-28T02:09:48.474Z,90.70
2023-03-28T02:12:47.041Z,90.30
2023-03-28T02:15:20.564Z,90.20
2023-03-28T02:18:03.456Z,90.20
2023-03-28T02:20:38.038Z,90.20
2023-03-28T02:23:25.214Z,90.40
2023-03-28T02:25:54.548Z,89.90
2023-03-28T02:28:25.333Z,90.00
2023-03-28T02:30:54.660Z,90.00
2023-03-28T02:33:45.699Z,90.10
2023-03-28T02:37:03.976Z,90.00
2023-03-28T02:39:52.554Z,89.30
2023-03-28T02:42:55.434Z,89.30
2023-03-28T02:46:05.724Z,88.80
2023-03-28T02:48:37.606Z,88.40
2023-03-28T02:51:35.868Z,88.80
2023-03-28T02:54:25.092Z,88.40
2023-03-28T02:57:29.340Z,88.30
2023-03-28T03:00:13.526Z,88.30
2023-03-28T03:02:46.304Z,88.40
2023-03-28T03:05:15.586Z,88.20
2023-03-28T03:07:44.897Z,87.90
2023-03-28T03:10:18.124Z,87.60
2023-03-28T03:12:47.744Z,87.90
2023-03-28T03:15:20.161Z,88.10
2023-03-28T03:17:49.643Z,87.90
2023-03-28T03:20:19.674Z,87.70
2023-03-28T03:22:48.870Z,87.80
2023-03-28T03:25:18.207Z,87.80
2023-03-28T03:27:47.582Z,87.70
2023-03-28T03:30:16.802Z,87.50
2023-03-28T03:32:46.197Z,87.60
2023-03-28T03:35:15.432Z,87.40
2023-03-28T03:37:44.631Z,87.20
2023-03-28T03:40:14.081Z,87.10
2023-03-28T03:42:46.358Z,87.10
2023-03-28T03:45:16.775Z,86.80
2023-03-28T03:47:46.155Z,86.30
2023-03-28T03:50:15.489Z,86.50
2023-03-28T03:52:44.711Z,86.60
2023-03-28T03:55:15.648Z,86.70
2023-03-28T03:57:44.807Z,86.50
2023-03-28T04:00:15.598Z,86.40
2023-03-28T04:02:44.823Z,85.80
2023-03-28T04:05:14.448Z,85.70
2023-03-28T04:07:43.963Z,85.30
2023-03-28T04:10:13.276Z,84.80
2023-03-28T04:12:42.550Z,84.80
2023-03-28T04:15:12.405Z,85.10
2023-03-28T04:17:42.136Z,85.50
2023-03-28T04:20:14.861Z,85.30
2023-03-28T04:22:45.183Z,85.20
2023-03-28T04:25:16.057Z,85.00
2023-03-28T04:27:48.504Z,84.80
2023-03-28T04:30:18.803Z,84.40
2023-03-28T04:32:51.406Z,84.50
2023-03-28T04:35:21.287Z,84.60
2023-03-28T04:37:50.808Z,84.50
2023-03-28T04:40:20.030Z,84.10
2023-03-28T04:42:49.268Z,84.20
2023-03-28T04:45:19.752Z,84.20
2023-03-28T04:47:49.819Z,83.80
2023-03-28T04:50:19.422Z,84.00
2023-03-28T04:52:48.640Z,84.10
2023-03-28T04:55:17.880Z,83.70
2023-03-28T04:57:47.052Z,83.20
2023-03-28T05:00:19.471Z,82.80
2023-03-28T05:02:48.859Z,82.30
2023-03-28T05:05:18.379Z,81.60
2023-03-28T05:07:47.542Z,81.20
2023-03-28T05:10:17.445Z,80.80
2023-03-28T05:12:46.601Z,80.20
2023-03-28T05:15:21.348Z,80.00
2023-03-28T05:17:52.645Z,79.80
2023-03-28T05:20:22.172Z,79.90
2023-03-28T05:22:51.301Z,79.70
2023-03-28T05:25:21.451Z,79.80
2023-03-28T05:27:52.260Z,79.80
2023-03-28T05:30:22.157Z,79.80
2023-03-28T05:32:51.331Z,79.60
2023-03-28T05:35:20.684Z,79.10
2023-03-28T05:37:50.027Z,79.40
2023-03-28T05:40:19.774Z,78.60
2023-03-28T05:42:49.530Z,77.80
2023-03-28T05:45:18.928Z,77.70
2023-03-28T05:47:48.224Z,77.00
2023-03-28T05:50:17.462Z,76.80
2023-03-28T05:52:46.639Z,77.00
2023-03-28T05:55:16.026Z,76.50
2023-03-28T05:57:45.247Z,76.40
2023-03-28T06:00:15.284Z,76.10
2023-03-28T06:02:44.725Z,76.10
2023-03-28T06:05:14.738Z,75.90
2023-03-28T06:07:44.168Z,75.70
2023-03-28T06:10:16.510Z,76.00
2023-03-28T06:12:46.113Z,75.20
2023-03-28T06:15:15.471Z,75.10
2023-03-28T06:17:44.828Z,75.30
2023-03-28T06:20:14.481Z,75.40
2023-03-28T06:22:44.004Z,75.30
2023-03-28T06:25:13.378Z,75.00
2023-03-28T06:27:42.662Z,74.70
2023-03-28T06:30:12.723Z,75.00
2023-03-28T06:32:42.042Z,74.80
2023-03-28T06:35:11.680Z,73.90
2023-03-28T06:37:40.879Z,74.10
2023-03-28T06:40:12.010Z,73.80
2023-03-28T06:42:42.127Z,74.70
2023-03-28T06:45:12.375Z,74.60
2023-03-28T06:47:41.739Z,74.30
2023-03-28T06:50:11.848Z,74.40
2023-03-28T06:52:41.421Z,74.00
2023-03-28T06:55:11.189Z,73.30
2023-03-28T06:57:40.533Z,73.40
2023-03-28T07:00:10.548Z,73.80
2023-03-28T07:02:39.879Z,73.30
2023-03-28T07:05:09.538Z,73.20
2023-03-28T07:07:38.693Z,73.10
2023-03-28T07:10:09.104Z,73.50
2023-03-28T07:12:38.649Z,73.00
2023-03-28T07:15:08.507Z,73.10
2023-03-28T07:17:37.854Z,73.40
2023-03-28T07:20:08.295Z,73.40
2023-03-28T07:22:37.520Z,72.40
2023-03-28T07:25:09.034Z,72.50
2023-03-28T07:27:38.255Z,71.80
2023-03-28T07:30:09.138Z,72.00
2023-03-28T07:32:48.113Z,71.60
2023-03-28T07:35:21.752Z,71.10
2023-03-28T07:37:50.903Z,71.10
2023-03-28T07:40:20.122Z,70.70
2023-03-28T07:42:51.623Z,70.80
2023-03-28T07:45:20.888Z,71.20
2023-03-28T07:47:50.277Z,70.70
2023-03-28T07:50:22.321Z,70.70
2023-03-28T07:52:58.342Z,69.80
2023-03-28T07:55:28.429Z,70.10
2023-03-28T07:57:57.759Z,70.20
2023-03-28T08:00:28.468Z,69.90
2023-03-28T08:02:59.994Z,69.60
2023-03-28T08:05:29.400Z,69.50
2023-03-28T08:07:59.494Z,69.90
2023-03-28T08:10:28.788Z,70.00
2023-03-28T08:12:58.140Z,69.60
2023-03-28T08:15:27.854Z,69.50
2023-03-28T08:17:57.282Z,69.40
2023-03-28T08:20:26.729Z,68.90
2023-03-28T08:22:56.170Z,69.70
2023-03-28T08:25:25.426Z,69.70
2023-03-28T08:27:54.632Z,69.80
2023-03-28T08:30:23.920Z,69.20
2023-03-28T08:32:53.361Z,69.20
2023-03-28T08:35:22.647Z,69.60
2023-03-28T08:37:53.152Z,69.30
2023-03-28T08:40:25.705Z,69.20
2023-03-28T08:43:33.769Z,69.80
2023-03-28T08:46:03.496Z,70.30
2023-03-28T08:48:48.393Z,70.20
2023-03-28T08:51:27.089Z,70.70
2023-03-28T08:54:24.393Z,70.90
2023-03-28T08:56:58.739Z,71.20
2023-03-28T08:59:48.395Z,71.60
2023-03-28T09:02:24.649Z,71.90
2023-03-28T09:04:57.999Z,72.40
2023-03-28T09:08:23.584Z,73.10
2023-03-28T09:11:30.196Z,73.20
2023-03-28T09:14:24.999Z,73.50
2023-03-28T09:17:27.967Z,74.10
2023-03-28T09:20:21.316Z,74.60
2023-03-28T09:23:27.346Z,75.00
2023-03-28T09:26:28.781Z,75.10
2023-03-28T09:29:21.724Z,75.20
2023-03-28T09:31:59.117Z,75.60
2023-03-28T09:34:37.802Z,75.80
2023-03-28T09:37:40.389Z,75.90
2023-03-28T09:40:18.950Z,76.00
2023-03-28T09:43:26.837Z,76.40
2023-03-28T09:46:30.006Z,76.50
2023-03-28T09:48:59.916Z,76.30
2023-03-28T09:51:29.735Z,76.40
2023-03-28T09:53:58.986Z,77.10
2023-03-28T09:56:45.143Z,76.50
2023-03-28T09:59:35.885Z,76.20
2023-03-28T10:02:06.346Z,76.10
2023-03-28T10:04:39.908Z,76.20
2023-03-28T10:07:12.213Z,76.20
2023-03-28T10:09:58.165Z,76.00
2023-03-28T10:12:37.608Z,76.10
2023-03-28T10:15:09.824Z,76.10
2023-03-28T10:17:41.719Z,76.70
2023-03-28T10:20:23.185Z,76.20
2023-03-28T10:22:58.188Z,76.80
2023-03-28T10:25:51.193Z,76.10
2023-03-28T10:28:33.354Z,75.80
2023-03-28T10:31:05.131Z,76.60
2023-03-28T10:33:47.358Z,76.30
2023-03-28T10:36:44.933Z,76.30
2023-03-28T10:39:31.129Z,76.30
2023-03-28T10:42:03.116Z,76.40
2023-03-28T10:44:41.556Z,76.70
2023-03-28T10:47:20.551Z,77.00
2023-03-28T10:49:54.791Z,77.10
2023-03-28T10:53:00.557Z,77.10
2023-03-28T10:56:04.132Z,77.60
2023-03-28T10:58:50.152Z,78.10
2023-03-28T11:01:33.610Z,78.20
2023-03-28T11:04:52.579Z,78.00
2023-03-28T11:07:46.469Z,78.20
2023-03-28T11:10:44.317Z,78.60
2023-03-28T11:14:05.378Z,78.60
2023-03-28T11:17:14.936Z,78.70
2023-03-28T11:20:18.528Z,78.50
2023-03-28T11:23:29.667Z,78.70
2023-03-28T11:26:27.366Z,78.70
2023-03-28T11:29:19.152Z,78.90
2023-03-28T11:32:16.391Z,79.10
2023-03-28T11:35:30.240Z,79.60
2023-03-28T11:38:14.850Z,79.00
2023-03-28T11:41:08.737Z,79.20
2023-03-28T11:43:57.274Z,79.80
2023-03-28T11:46:39.235Z,80.00
2023-03-28T11:49:23.628Z,80.30
2023-03-28T11:52:10.956Z,80.60
2023-03-28T11:54:55.288Z,80.50
2023-03-28T11:57:36.113Z,80.70
2023-03-28T12:00:58.920Z,80.60
2023-03-28T12:03:34.505Z,81.20
2023-03-28T12:06:14.167Z,81.10
2023-03-28T12:09:12.209Z,81.30
2023-03-28T12:11:58.124Z,81.40
2023-03-28T12:15:18.147Z,82.00
2023-03-28T12:18:06.072Z,82.00
2023-03-28T12:20:50.607Z,82.30
2023-03-28T12:23:38.862Z,82.80
2023-03-28T12:26:37.707Z,83.40
2023-03-28T12:29:26.436Z,83.40
2023-03-28T12:32:47.796Z,84.10
2023-03-28T12:35:49.250Z,83.50
2023-03-28T12:38:43.817Z,83.80
2023-03-28T12:41:24.389Z,84.20
2023-03-28T12:44:14.688Z,85.10
2023-03-28T12:47:25.707Z,85.60
2023-03-28T12:50:33.762Z,85.50
2023-03-28T12:53:03.292Z,85.80
2023-03-28T12:55:35.343Z,86.10
2023-03-28T12:58:30.915Z,86.30
2023-03-28T13:01:20.841Z,86.20
2023-03-28T13:04:28.886Z,86.40
2023-03-28T13:07:28.212Z,86.60
2023-03-28T13:10:20.976Z,86.60
2023-03-28T13:13:29.317Z,87.10
2023-03-28T13:16:30.836Z,87.10
2023-03-28T13:19:15.210Z,87.60
2023-03-28T13:21:56.013Z,88.10
2023-03-28T13:24:30.152Z,87.30
2023-03-28T13:27:12.342Z,87.60
2023-03-28T13:30:06.437Z,87.30
2023-03-28T13:32:43.392Z,87.10
2023-03-28T13:35:50.283Z,87.30
2023-03-28T13:38:31.885Z,87.00
2023-03-28T13:41:13.727Z,87.20
2023-03-28T13:43:50.253Z,87.40
2023-03-28T13:46:43.170Z,87.30
2023-03-28T13:49:18.939Z,87.00
2023-03-28T13:52:05.901Z,87.10
2023-03-28T13:54:36.218Z,87.00
2023-03-28T13:57:20.135Z,87.10
2023-03-28T14:00:02.456Z,87.20
2023-03-28T14:02:37.192Z,87.10
2023-03-28T14:05:32.501Z,87.20
2023-03-28T14:08:24.819Z,86.80
2023-03-28T14:10:56.486Z,86.60
2023-03-28T14:13:31.887Z,86.80
2023-03-28T14:16:01.381Z,86.50
2023-03-28T14:18:35.776Z,86.40
2023-03-28T14:21:08.651Z,86.30
2023-03-28T14:23:41.489Z,86.60
2023-03-28T14:26:23.158Z,86.40
2023-03-28T14:28:54.470Z,86.10
2023-03-28T14:31:41.233Z,87.00
2023-03-28T14:34:27.174Z,87.30
2023-03-28T14:37:07.157Z,87.00
2023-03-28T14:39:42.607Z,87.20
2023-03-28T14:42:19.681Z,88.60
2023-03-28T14:44:55.643Z,88.20
2023-03-28T14:47:36.129Z,88.60
2023-03-28T14:50:06.598Z,88.70
2023-03-28T14:52:41.759Z,88.60
2023-03-28T14:55:27.167Z,88.90
2023-03-28T14:57:57.929Z,89.00
2023-03-28T15:00:38.716Z,88.50
2023-03-28T15:03:15.980Z,88.10
2023-03-28T15:05:50.009Z,87.70
2023-03-28T15:08:35.157Z,87.10
2023-03-28T15:11:21.911Z,86.50
2023-03-28T15:14:08.715Z,84.80
2023-03-28T15:16:43.296Z,84.70
2023-03-28T15:19:38.569Z,83.40
2023-03-28T15:22:16.530Z,83.20
2023-03-28T15:24:47.159Z,83.90
2023-03-28T15:27:32.179Z,85.30
2023-03-28T15:30:17.754Z,88.00
2023-03-28T15:32:48.046Z,89.90
2023-03-28T15:35:40.898Z,90.70
2023-03-28T15:38:14.673Z,91.60
2023-03-28T15:40:50.258Z,92.20
2023-03-28T15:43:29.175Z,92.80
2023-03-28T15:46:13.782Z,93.80
2023-03-28T15:48:44.871Z,94.70
2023-03-28T15:51:20.895Z,95.50
2023-03-28T15:53:52.720Z,94.50
2023-03-28T15:56:32.958Z,95.90
2023-03-28T15:59:15.553Z,97.30
2023-03-28T16:01:45.283Z,96.40
2023-03-28T16:04:27.282Z,95.60
2023-03-28T16:07:21.559Z,96.00
2023-03-28T16:09:52.272Z,96.20
2023-03-28T16:12:22.008Z,97.10
2023-03-28T16:14:56.111Z,97.50
2023-03-28T16:17:29.721Z,97.50
2023-03-28T16:20:00.439Z,97.20
2023-03-28T16:22:30.008Z,97.80
2023-03-28T16:24:59.253Z,96.40
2023-03-28T16:27:28.531Z,97.30
2023-03-28T16:29:57.876Z,98.70
2023-03-28T16:32:27.637Z,99.60
2023-03-28T16:34:57.064Z,99.60
2023-03-28T16:37:26.285Z,99.90
2023-03-28T16:39:55.655Z,99.80
2023-03-28T16:42:27.833Z,99.90
2023-03-28T16:44:57.380Z,99.90
2023-03-28T16:47:27.140Z,99.90
2023-03-28T16:49:59.800Z,99.90
2023-03-28T16:52:30.057Z,99.90
2023-03-28T16:54:59.415Z,99.90
2023-03-28T16:57:29.043Z,99.90
2023-03-28T16:59:58.397Z,99.90
2023-03-28T17:02:27.870Z,99.90
2023-03-28T17:04:57.249Z,99.90
2023-03-28T17:07:26.968Z,99.90
2023-03-28T17:09:56.765Z,99.90
2023-03-28T17:12:27.136Z,99.90
2023-03-28T17:14:56.437Z,99.90
2023-03-28T17:17:25.743Z,99.90
2023-03-28T17:19:55.009Z,99.90
2023-03-28T17:22:24.353Z,99.90
2023-03-28T17:24:56.537Z,99.90
2023-03-28T17:27:25.884Z,99.90
2023-03-28T17:29:55.377Z,99.90
2023-03-28T17:32:25.088Z,99.90
2023-03-28T17:34:54.735Z,99.90
2023-03-28T17:37:25.283Z,99.90
2023-03-28T17:39:54.751Z,99.90
2023-03-28T17:42:25.278Z,99.90
2023-03-28T17:44:55.636Z,99.90
2023-03-28T17:47:25.030Z,99.90
2023-03-28T17:49:56.934Z,99.90
2023-03-28T17:52:26.259Z,99.90
2023-03-28T17:54:55.522Z,99.90
2023-03-28T17:57:25.144Z,99.90
2023-03-28T17:59:55.597Z,99.90
2023-03-28T18:02:25.931Z,99.90
2023-03-28T18:04:55.312Z,99.90
2023-03-28T18:07:24.810Z,99.90
2023-03-28T18:09:54.792Z,99.90
2023-03-28T18:12:24.184Z,99.90
2023-03-28T18:14:53.432Z,99.90
2023-03-28T18:17:23.967Z,99.90
2023-03-28T18:19:53.449Z,99.90
2023-03-28T18:22:22.970Z,99.90
2023-03-28T18:24:52.249Z,99.90
2023-03-28T18:27:21.501Z,99.90
2023-03-28T18:29:50.814Z,99.90
2023-03-28T18:32:20.231Z,99.90
2023-03-28T18:34:49.475Z,99.90
2023-03-28T18:37:18.737Z,99.90
2023-03-28T18:39:48.090Z,99.90
2023-03-28T18:42:17.484Z,99.90
2023-03-28T18:44:47.573Z,99.90
2023-03-28T18:47:17.698Z,99.90
2023-03-28T18:49:47.211Z,99.90
2023-03-28T18:52:16.681Z,99.90
2023-03-28T18:54:46.794Z,99.90
2023-03-28T18:57:17.007Z,99.90
2023-03-28T18:59:46.529Z,99.90
2023-03-28T19:02:18.583Z,99.90
2023-03-28T19:04:48.422Z,99.90
2023-03-28T19:07:19.952Z,99.90
2023-03-28T19:09:49.839Z,99.90
2023-03-28T19:12:19.065Z,99.90
2023-03-28T19:14:48.356Z,99.90
2023-03-28T19:17:17.820Z,99.90
2023-03-28T19:19:47.198Z,99.90
2023-03-28T19:22:16.596Z,99.90
2023-03-28T19:24:45.875Z,99.90
2023-03-28T19:27:15.148Z,99.90
2023-03-28T19:29:44.403Z,99.90
2023-03-28T19:32:13.699Z,99.90
2023-03-28T19:34:42.940Z,99.90
2023-03-28T19:37:12.629Z,99.90
2023-03-28T19:39:42.069Z,99.90
2023-03-28T19:42:11.614Z,99.90
2023-03-28T19:44:40.896Z,99.90
2023-03-28T19:47:10.100Z,99.90
2023-03-28T19:49:39.743Z,99.90
2023-03-28T19:52:10.856Z,99.90
2023-03-28T19:54:40.436Z,99.90
2023-03-28T19:57:09.805Z,99.90
2023-03-28T19:59:39.450Z,99.90
2023-03-28T20:02:10.618Z,99.90
2023-03-28T20:04:39.979Z,99.90
2023-03-28T20:07:09.296Z,99.90
2023-03-28T20:09:38.577Z,99.90
2023-03-28T20:12:08.022Z,99.90
2023-03-28T20:14:37.321Z,99.90
2023-03-28T20:17:06.644Z,99.90
2023-03-28T20:19:38.620Z,99.90
2023-03-28T20:22:09.007Z,99.90
2023-03-28T20:24:38.629Z,99.90
2023-03-28T20:27:07.898Z,99.90
2023-03-28T20:29:38.380Z,99.90
2023-03-28T20:32:09.825Z,99.90
2023-03-28T20:34:39.661Z,99.90
2023-03-28T20:37:09.322Z,99.90
2023-03-28T20:39:38.609Z,99.90
2023-03-28T20:42:08.166Z,99.90
2023-03-28T20:44:40.518Z,99.90
2023-03-28T20:47:11.658Z,99.90
2023-03-28T20:49:47.234Z,99.90
2023-03-28T20:52:16.707Z,99.90
2023-03-28T20:54:47.162Z,99.90
2023-03-28T20:57:16.475Z,99.90
2023-03-28T20:59:45.798Z,99.90
2023-03-28T21:02:15.817Z,99.90
2023-03-28T21:04:45.355Z,99.90
2023-03-28T21:07:15.044Z,99.90
2023-03-28T21:09:44.450Z,99.90
2023-03-28T21:12:13.738Z,99.90
2023-03-28T21:14:42.988Z,99.90
2023-03-28T21:17:26.147Z,99.90
2023-03-28T21:19:55.903Z,99.90
2023-03-28T21:22:25.153Z,99.90
2023-03-28T21:24:54.512Z,99.90
2023-03-28T21:27:23.792Z,99.90
2023-03-28T21:29:53.388Z,99.90
2023-03-28T21:32:22.718Z,99.90
2023-03-28T21:34:52.219Z,99.90
2023-03-28T21:37:21.418Z,99.90
2023-03-28T21:39:50.715Z,99.90
2023-03-28T21:42:19.957Z,99.90
2023-03-28T21:44:49.213Z,99.90
2023-03-28T21:47:18.512Z,99.90
2023-03-28T21:49:50.307Z,99.90
2023-03-28T21:52:20.593Z,99.90
2023-03-28T21:54:49.848Z,99.90
2023-03-28T21:57:19.161Z,99.90
2023-03-28T21:59:48.464Z,99.90
2023-03-28T22:02:18.088Z,99.90
2023-03-28T22:04:48.141Z,99.90
2023-03-28T22:07:17.410Z,99.90
2023-03-28T22:09:46.639Z,99.90
2023-03-28T22:12:15.891Z,99.90
2023-03-28T22:14:45.177Z,99.90
2023-03-28T22:17:14.890Z,99.90
2023-03-28T22:19:43.974Z,99.90
2023-03-28T22:22:13.067Z,99.90
2023-03-28T22:24:42.236Z,99.90
2023-03-28T22:27:11.755Z,99.90
2023-03-28T22:29:41.010Z,99.90
2023-03-28T22:32:10.260Z,99.90
2023-03-28T22:34:39.557Z,99.90
2023-03-28T22:37:10.050Z,99.90
2023-03-28T22:39:39.157Z,99.90
2023-03-28T22:42:09.576Z,99.90
2023-03-28T22:44:38.863Z,99.90
2023-03-28T22:47:07.915Z,99.90
2023-03-28T22:49:39.192Z,99.90
2023-03-28T22:52:08.360Z,99.90
2023-03-28T22:54:38.635Z,99.90
2023-03-28T22:57:08.180Z,99.90
2023-03-28T22:59:37.369Z,99.90
2023-03-28T23:02:07.077Z,99.90
2023-03-28T23:04:36.286Z,99.90
2023-03-28T23:07:05.636Z,99.90
2023-03-28T23:09:34.959Z,99.90
2023-03-28T23:12:04.214Z,99.90
2023-03-28T23:14:34.137Z,99.90
2023-03-28T23:17:04.591Z,99.90
2023-03-28T23:19:34.078Z,99.90
2023-03-28T23:22:03.499Z,99.90
2023-03-28T23:24:32.958Z,99.90
2023-03-28T23:27:02.199Z,99.90
2023-03-28T23:29:31.900Z,99.90
2023-03-28T23:32:01.344Z,99.90
2023-03-28T23:34:30.636Z,99.90
2023-03-28T23:37:02.513Z,99.90
2023-03-28T23:39:32.253Z,99.90
2023-03-28T23:42:01.592Z,99.90
2023-03-28T23:44:31.784Z,99.90
2023-03-28T23:47:01.872Z,99.90
2023-03-28T23:49:31.266Z,99.90
2023-03-28T23:52:00.872Z,99.90
2023-03-28T23:54:31.522Z,99.90
2023-03-28T23:57:00.848Z,99.90
2023-03-28T23:59:30.962Z,99.90
